»·PEaware :: DAL827 KSLC-KSEA

DAL827 :: KSLC-KSEA

FLIGHT INFORMATION

Flight Status: Arrived
Operator:
Delta Air Lines
More flights by this operator :: More flights under this callsign
Pilot: Joe P. (13940)
Aircraft: BOEING 737-800
(B738)
More flights by this aircraft type
Origin: KSLC Salt Lake City Intl
United States
Destination: KSEA Seattle-Tacoma Intl
United States
More flights between these airports :: More routes between these airports
Route: + TWF4 TWF J15 BOI J163 BKE DCT PDT CHINS2
File this flight plan on PilotEdge
Remarks: SEL / ABCD KPDX -PBN / A1B1C1D1L1O1S1 NAV / RNVD1E2A1 DOF / 180113 REG / N389DA EET / KZSE0101 RVR / 200
Altitude:
(Current/Filed)
320ft
Speed:
(Current/Filed)
453kts
Departed: 13-Jan-18 07:58 AM
Arrived: 13-Jan-18 09:53 AM
Distance/Time
Traveled:
597nm/1:55
Distance/Time
To Go:
Arrived

Flight Plot

Page will automatically refresh every two minutes.

Flight plan parsing failed; only flown route is shown


Map Options




Map Legend


Flown Route
Filed Route
Departure Airport
Arrival Airport
Navaid (VOR, NDB)
Fix

Horizontal Profiles

Position Reports

Time Latitude Longitude Heading Altitude Ground
Speed
13-Jan-18 06:48 40.787383 -111.981153 284 4235ft 0kts
13-Jan-18 06:49 40.787383 -111.981153 284 4235ft 0kts
13-Jan-18 06:50 40.787383 -111.981153 284 4235ft 0kts
13-Jan-18 06:51 40.787383 -111.981153 284 4235ft 0kts
13-Jan-18 06:52 40.787383 -111.981153 284 4235ft 0kts
13-Jan-18 06:53 40.787383 -111.981153 284 4235ft 0kts
13-Jan-18 06:54 40.787383 -111.981153 284 4235ft 0kts
13-Jan-18 06:55 40.787383 -111.981153 284 4235ft 0kts
13-Jan-18 07:01 40.787383 -111.981153 284 4235ft 0kts
13-Jan-18 07:02 40.787383 -111.981153 284 4235ft 0kts
13-Jan-18 07:03 40.787383 -111.981153 284 4235ft 0kts
13-Jan-18 07:04 40.787383 -111.981153 284 4235ft 0kts
13-Jan-18 07:05 40.787383 -111.981153 284 4235ft 0kts
13-Jan-18 07:06 40.787383 -111.981153 284 4235ft 0kts
13-Jan-18 07:07 40.787383 -111.981153 284 4235ft 0kts
13-Jan-18 07:08 40.787383 -111.981153 284 4235ft 0kts
13-Jan-18 07:09 40.787383 -111.981153 284 4235ft 0kts
13-Jan-18 07:10 40.787383 -111.981153 284 4235ft 0kts
13-Jan-18 07:11 40.787383 -111.981153 284 4235ft 0kts
13-Jan-18 07:12 40.787383 -111.981153 284 4235ft 0kts
13-Jan-18 07:13 40.787383 -111.981153 284 4235ft 0kts
13-Jan-18 07:14 40.787383 -111.981153 284 4235ft 0kts
13-Jan-18 07:15 40.787383 -111.981153 284 4235ft 0kts
13-Jan-18 07:16 40.787383 -111.981153 284 4235ft 0kts
13-Jan-18 07:17 40.787383 -111.981153 284 4235ft 0kts
13-Jan-18 07:18 40.787383 -111.981153 284 4235ft 0kts
13-Jan-18 07:19 40.787383 -111.981153 284 4235ft 0kts
13-Jan-18 07:20 40.787383 -111.981153 284 4235ft 0kts
13-Jan-18 07:21 40.787383 -111.981153 284 4235ft 0kts
13-Jan-18 07:22 40.787383 -111.981153 284 4235ft 0kts
13-Jan-18 07:23 40.787383 -111.981153 284 4235ft 0kts
13-Jan-18 07:24 40.787383 -111.981153 284 4235ft 0kts
13-Jan-18 07:25 40.787383 -111.981153 284 4235ft 0kts
13-Jan-18 07:26 40.787383 -111.981153 284 4235ft 0kts
13-Jan-18 07:27 40.787383 -111.981153 284 4235ft 0kts
13-Jan-18 07:28 40.787383 -111.981153 284 4235ft 0kts
13-Jan-18 07:29 40.787383 -111.981153 284 4235ft 0kts
13-Jan-18 07:30 40.787383 -111.981153 284 4235ft 0kts
13-Jan-18 07:31 40.787383 -111.981153 284 4235ft 0kts
13-Jan-18 07:32 40.787383 -111.981153 284 4235ft 0kts
13-Jan-18 07:33 40.787383 -111.981153 284 4235ft 0kts
13-Jan-18 07:34 40.787383 -111.981153 284 4235ft 0kts
13-Jan-18 07:35 40.787383 -111.981153 284 4235ft 0kts
13-Jan-18 07:36 40.787383 -111.981153 284 4235ft 0kts
13-Jan-18 07:37 40.787383 -111.981153 284 4235ft 0kts
13-Jan-18 07:38 40.787383 -111.981153 284 4235ft 0kts
13-Jan-18 07:39 40.787383 -111.981153 284 4235ft 0kts
13-Jan-18 07:40 40.787383 -111.981153 284 4235ft 0kts
13-Jan-18 07:41 40.787383 -111.981153 284 4235ft 0kts
13-Jan-18 07:42 40.787383 -111.981153 284 4235ft 0kts
13-Jan-18 07:43 40.787383 -111.981153 284 4235ft 0kts
13-Jan-18 07:44 40.787383 -111.981153 284 4235ft 0kts
13-Jan-18 07:45 40.787383 -111.981153 284 4235ft 0kts
13-Jan-18 07:46 40.787383 -111.981153 284 4235ft 0kts
13-Jan-18 07:47 40.787383 -111.981153 284 4235ft 0kts
13-Jan-18 07:48 40.787383 -111.981153 284 4235ft 0kts
13-Jan-18 07:49 40.787383 -111.981153 284 4235ft 0kts
13-Jan-18 07:50 40.787272 -111.980590 284 4235ft 2kts
13-Jan-18 07:51 40.787156 -111.980006 284 4235ft 0kts
13-Jan-18 07:52 40.787156 -111.980006 284 4235ft 0kts
13-Jan-18 07:53 40.787156 -111.980006 284 4235ft 0kts
13-Jan-18 07:54 40.787156 -111.980006 284 4235ft 0kts
13-Jan-18 07:55 40.787156 -111.980007 284 4235ft 0kts
13-Jan-18 07:56 40.787156 -111.980007 284 4235ft 0kts
13-Jan-18 07:57 40.788720 -111.979974 15 4235ft 7kts
13-Jan-18 07:58 40.789675 -111.978178 87 4235ft 15kts
13-Jan-18 07:59 40.794743 -111.977668 354 4235ft 21kts
13-Jan-18 08:00 40.800778 -111.978407 352 4235ft 21kts
13-Jan-18 08:01 40.806341 -111.979024 354 4235ft 19kts
13-Jan-18 08:02 40.807538 -111.978381 78 4235ft 0kts
13-Jan-18 08:03 40.806515 -111.976771 177 4235ft 1kts
13-Jan-18 08:04 40.787058 -111.974570 174 4359ft 186kts
13-Jan-18 08:05 40.734544 -111.992331 239 7113ft 235kts
13-Jan-18 08:06 40.753670 -112.081183 297 9883ft 278kts
13-Jan-18 08:07 40.787209 -112.177955 296 12453ft 322kts
13-Jan-18 08:08 40.825746 -112.292015 299 15183ft 348kts
13-Jan-18 08:09 40.903973 -112.363410 343 18033ft 356kts
13-Jan-18 08:10 41.000998 -112.400617 339 20486ft 371kts
13-Jan-18 08:11 41.098834 -112.450613 329 22662ft 382kts
13-Jan-18 08:12 41.189169 -112.528532 321 24602ft 393kts
13-Jan-18 08:13 41.275695 -112.619142 316 26451ft 401kts
13-Jan-18 08:14 41.352618 -112.728628 311 28074ft 408kts
13-Jan-18 08:15 41.428793 -112.841801 310 29801ft 408kts
13-Jan-18 08:16 41.502458 -112.954733 310 31678ft 400kts
13-Jan-18 08:17 41.575521 -113.067227 310 32553ft 402kts
13-Jan-18 08:18 41.648146 -113.179045 310 32553ft 398kts
13-Jan-18 08:19 41.720930 -113.290985 310 32547ft 398kts
13-Jan-18 08:20 41.793390 -113.403189 310 32542ft 399kts
13-Jan-18 08:21 41.865748 -113.515757 309 32538ft 399kts
13-Jan-18 08:22 41.938189 -113.628946 309 32534ft 399kts
13-Jan-18 08:23 42.010287 -113.742029 309 32531ft 398kts
13-Jan-18 08:24 42.082423 -113.855623 309 32533ft 399kts
13-Jan-18 08:25 42.154302 -113.969243 309 32532ft 399kts
13-Jan-18 08:26 42.226042 -114.083082 309 32532ft 399kts
13-Jan-18 08:27 42.298048 -114.197408 309 32534ft 399kts
13-Jan-18 08:28 42.369538 -114.311682 309 32537ft 398kts
13-Jan-18 08:29 42.440886 -114.426550 309 32539ft 398kts
13-Jan-18 08:30 42.512661 -114.540422 310 32540ft 398kts
13-Jan-18 08:31 42.585540 -114.653205 310 32540ft 398kts
13-Jan-18 08:32 42.658376 -114.766668 309 32540ft 397kts
13-Jan-18 08:33 42.731006 -114.879840 310 32540ft 398kts
13-Jan-18 08:34 42.803748 -114.993171 309 32540ft 398kts
13-Jan-18 08:35 42.876493 -115.107295 309 32541ft 398kts
13-Jan-18 08:36 42.948859 -115.221397 309 32545ft 398kts
13-Jan-18 08:37 43.021358 -115.336169 309 32548ft 398kts
13-Jan-18 08:38 43.093463 -115.450833 309 32555ft 398kts
13-Jan-18 08:39 43.165450 -115.565744 309 32557ft 398kts
13-Jan-18 08:40 43.237568 -115.681338 309 32557ft 397kts
13-Jan-18 08:41 43.309145 -115.796512 309 32558ft 397kts
13-Jan-18 08:42 43.381047 -115.912212 309 32558ft 397kts
13-Jan-18 08:43 43.452401 -116.028022 308 32558ft 398kts
13-Jan-18 08:44 43.523717 -116.144498 308 32559ft 398kts
13-Jan-18 08:45 43.602288 -116.252734 316 32560ft 400kts
13-Jan-18 08:46 43.685458 -116.354418 316 32568ft 400kts
13-Jan-18 08:47 43.768761 -116.456903 315 32575ft 400kts
13-Jan-18 08:48 43.851883 -116.559056 316 32586ft 400kts
13-Jan-18 08:49 43.934992 -116.661418 315 32596ft 400kts
13-Jan-18 08:50 44.018267 -116.764675 315 32603ft 399kts
13-Jan-18 08:51 44.100283 -116.866839 315 32606ft 396kts
13-Jan-18 08:52 44.182093 -116.969170 315 32604ft 396kts
13-Jan-18 08:53 44.264065 -117.072115 315 32600ft 396kts
13-Jan-18 08:54 44.345742 -117.175097 315 32591ft 396kts
13-Jan-18 08:55 44.427600 -117.278717 315 32580ft 396kts
13-Jan-18 08:56 44.509096 -117.382279 315 32570ft 396kts
13-Jan-18 08:57 44.590486 -117.486138 315 32561ft 396kts
13-Jan-18 08:58 44.672191 -117.590370 315 32555ft 396kts
13-Jan-18 08:59 44.753294 -117.694888 314 32551ft 396kts
13-Jan-18 09:00 44.834462 -117.799908 314 32550ft 395kts
13-Jan-18 09:01 44.915333 -117.904430 314 32550ft 394kts
13-Jan-18 09:02 44.995723 -118.009147 314 32546ft 393kts
13-Jan-18 09:03 45.076725 -118.115079 314 32539ft 396kts
13-Jan-18 09:04 45.157615 -118.220399 314 32536ft 395kts
13-Jan-18 09:05 45.238421 -118.326274 314 32529ft 394kts
13-Jan-18 09:06 45.318714 -118.432080 314 32515ft 394kts
13-Jan-18 09:07 45.398848 -118.538167 314 32505ft 393kts
13-Jan-18 09:08 45.479244 -118.644812 314 32503ft 394kts
13-Jan-18 09:09 45.559265 -118.751445 314 32500ft 394kts
13-Jan-18 09:10 45.639025 -118.858652 314 32500ft 395kts
13-Jan-18 09:11 45.717564 -118.968812 309 32500ft 394kts
13-Jan-18 09:12 45.787911 -119.088860 307 32500ft 395kts
13-Jan-18 09:13 45.858596 -119.209717 308 32510ft 394kts
13-Jan-18 09:14 45.929314 -119.330381 308 32511ft 396kts
13-Jan-18 09:15 46.000386 -119.450848 308 32518ft 395kts
13-Jan-18 09:16 46.070892 -119.571497 307 32525ft 392kts
13-Jan-18 09:17 46.140806 -119.692377 307 32529ft 393kts
13-Jan-18 09:18 46.211093 -119.814102 307 32529ft 394kts
13-Jan-18 09:19 46.281021 -119.935798 307 32528ft 394kts
13-Jan-18 09:20 46.350836 -120.057916 307 32530ft 394kts
13-Jan-18 09:21 46.421035 -120.180368 307 32525ft 394kts
13-Jan-18 09:22 46.465276 -120.258362 307 32524ft 393kts
13-Jan-18 09:29 46.396959 -120.133527 305 32529ft 375kts
13-Jan-18 09:30 46.462148 -120.252521 307 32423ft 381kts
13-Jan-18 09:31 46.531476 -120.376076 307 30967ft 400kts
13-Jan-18 09:32 46.599543 -120.503565 302 29063ft 393kts
13-Jan-18 09:33 46.660360 -120.632206 303 27753ft 377kts
13-Jan-18 09:34 46.718754 -120.755314 303 26452ft 368kts
13-Jan-18 09:35 46.776703 -120.878114 303 25179ft 365kts
13-Jan-18 09:36 46.833660 -120.999060 303 24503ft 360kts
13-Jan-18 09:37 46.890207 -121.119868 303 24493ft 360kts
13-Jan-18 09:38 46.947251 -121.240905 302 24485ft 360kts
13-Jan-18 09:39 47.003589 -121.362296 302 24481ft 360kts
13-Jan-18 09:40 47.059763 -121.483969 302 24477ft 361kts
13-Jan-18 09:41 47.114945 -121.603302 302 22867ft 357kts
13-Jan-18 09:42 47.171417 -121.726686 302 20471ft 369kts
13-Jan-18 09:43 47.227797 -121.849900 302 18434ft 349kts
13-Jan-18 09:44 47.276577 -121.957004 301 18020ft 297kts
13-Jan-18 09:45 47.323340 -122.060581 301 15543ft 312kts
13-Jan-18 09:46 47.388643 -122.140283 353 13043ft 340kts
13-Jan-18 09:47 47.481773 -122.135762 357 11616ft 318kts
13-Jan-18 09:48 47.562697 -122.130287 357 10953ft 282kts
13-Jan-18 09:49 47.640016 -122.126701 357 9445ft 272kts
13-Jan-18 09:50 47.715172 -122.125723 355 7755ft 270kts
13-Jan-18 09:51 47.764906 -122.188057 270 5950ft 262kts
13-Jan-18 09:52 47.758539 -122.292405 233 4809ft 234kts
13-Jan-18 09:53 47.702257 -122.306670 179 4878ft 208kts
13-Jan-18 09:54 47.647401 -122.306175 180 3957ft 177kts
13-Jan-18 09:55 47.609513 -122.306451 180 3283ft 159kts
13-Jan-18 09:56 47.558110 -122.306898 180 2267ft 157kts
13-Jan-18 09:57 47.513968 -122.307285 180 1427ft 158kts
13-Jan-18 09:58 47.470334 -122.307675 179 602ft 155kts
13-Jan-18 09:59 47.446625 -122.307847 172 440ft 13kts
13-Jan-18 10:00 47.446062 -122.307303 116 440ft 0kts
13-Jan-18 10:01 47.446062 -122.307302 116 440ft 0kts
13-Jan-18 10:02 47.445469 -122.306289 163 440ft 9kts
13-Jan-18 10:03 47.441049 -122.306261 179 440ft 13kts
13-Jan-18 10:04 47.439799 -122.303861 78 440ft 10kts
13-Jan-18 10:05 47.439894 -122.300243 134 440ft 12kts
13-Jan-18 10:06 47.438710 -122.300446 286 440ft 5kts
13-Jan-18 10:07 47.438741 -122.300581 287 440ft 0kts
13-Jan-18 10:08 47.438741 -122.300581 287 440ft 0kts
13-Jan-18 10:09 47.438741 -122.300581 287 440ft 0kts
13-Jan-18 10:10 47.438433 -122.300625 306 440ft 0kts
13-Jan-18 10:11 47.438433 -122.300625 306 440ft 0kts
13-Jan-18 10:12 47.438433 -122.300625 306 440ft 0kts
13-Jan-18 10:13 47.438433 -122.300625 306 440ft 0kts

Navigation Log

Ident Type
Flight plan parsing failed, navigation log unavailable